sensor_id;sensor_type;location;lat;lon;timestamp;temperature;humidity
35305;DHT22;26433;48.034;-1.764;2022-09-09T05:01:20;17.60;91.00
35305;DHT22;26433;48.034;-1.764;2022-09-09T05:06:24;17.60;91.10
35305;DHT22;26433;48.034;-1.764;2022-09-09T05:11:30;17.60;91.10
35305;DHT22;26433;48.034;-1.764;2022-09-09T05:16:36;17.60;91.10
35305;DHT22;26433;48.034;-1.764;2022-09-09T05:21:40;17.60;91.10
35305;DHT22;26433;48.034;-1.764;2022-09-09T05:26:44;17.60;91.20
35305;DHT22;26433;48.034;-1.764;2022-09-09T05:31:49;17.60;91.20
35305;DHT22;26433;48.034;-1.764;2022-09-09T05:36:54;17.50;91.30
35305;DHT22;26433;48.034;-1.764;2022-09-09T05:41:58;17.50;91.50
35305;DHT22;26433;48.034;-1.764;2022-09-09T05:47:03;17.40;91.60
35305;DHT22;26433;48.034;-1.764;2022-09-09T05:52:07;17.50;91.60
35305;DHT22;26433;48.034;-1.764;2022-09-09T05:57:12;17.50;91.40
35305;DHT22;26433;48.034;-1.764;2022-09-09T06:02:17;17.50;91.40
35305;DHT22;26433;48.034;-1.764;2022-09-09T06:07:20;17.50;91.40
35305;DHT22;26433;48.034;-1.764;2022-09-09T06:12:25;17.50;91.40
35305;DHT22;26433;48.034;-1.764;2022-09-09T06:17:30;17.50;91.30
35305;DHT22;26433;48.034;-1.764;2022-09-09T06:22:34;17.50;91.40
35305;DHT22;26433;48.034;-1.764;2022-09-09T06:27:38;17.50;91.40
35305;DHT22;26433;48.034;-1.764;2022-09-09T06:32:43;17.50;91.40
35305;DHT22;26433;48.034;-1.764;2022-09-09T06:37:46;17.50;91.60
35305;DHT22;26433;48.034;-1.764;2022-09-09T06:42:51;17.70;91.40
35305;DHT22;26433;48.034;-1.764;2022-09-09T06:47:57;17.70;91.30
35305;DHT22;26433;48.034;-1.764;2022-09-09T06:53:00;17.80;91.20
35305;DHT22;26433;48.034;-1.764;2022-09-09T06:58:08;17.90;91.10
35305;DHT22;26433;48.034;-1.764;2022-09-09T07:03:13;18.00;91.20
35305;DHT22;26433;48.034;-1.764;2022-09-09T07:08:19;18.10;91.20
35305;DHT22;26433;48.034;-1.764;2022-09-09T07:13:24;18.10;91.00
35305;DHT22;26433;48.034;-1.764;2022-09-09T07:18:30;18.20;90.90
35305;DHT22;26433;48.034;-1.764;2022-09-09T07:23:35;18.30;90.80
35305;DHT22;26433;48.034;-1.764;2022-09-09T07:28:39;18.40;90.80
35305;DHT22;26433;48.034;-1.764;2022-09-09T07:33:45;18.50;90.90
35305;DHT22;26433;48.034;-1.764;2022-09-09T07:38:51;18.80;90.60
35305;DHT22;26433;48.034;-1.764;2022-09-09T07:43:55;19.00;90.10
35305;DHT22;26433;48.034;-1.764;2022-09-09T07:49:02;19.10;89.80
35305;DHT22;26433;48.034;-1.764;2022-09-09T07:54:09;19.10;89.80
35305;DHT22;26433;48.034;-1.764;2022-09-09T07:59:14;19.10;89.90
35305;DHT22;26433;48.034;-1.764;2022-09-09T08:04:20;19.10;89.50
35305;DHT22;26433;48.034;-1.764;2022-09-09T08:09:26;19.30;89.30
35305;DHT22;26433;48.034;-1.764;2022-09-09T08:14:32;19.40;89.00
35305;DHT22;26433;48.034;-1.764;2022-09-09T08:19:37;19.50;88.40
35305;DHT22;26433;48.034;-1.764;2022-09-09T08:24:41;19.60;87.70
35305;DHT22;26433;48.034;-1.764;2022-09-09T08:29:46;19.70;87.40
35305;DHT22;26433;48.034;-1.764;2022-09-09T08:34:52;19.80;87.00
35305;DHT22;26433;48.034;-1.764;2022-09-09T08:40:04;19.80;86.80
35305;DHT22;26433;48.034;-1.764;2022-09-09T08:45:29;20.00;86.10
35305;DHT22;26433;48.034;-1.764;2022-09-09T08:50:38;20.30;85.10
35305;DHT22;26433;48.034;-1.764;2022-09-09T08:55:47;20.60;84.00
35305;DHT22;26433;48.034;-1.764;2022-09-09T09:01:03;20.70;83.60
35305;DHT22;26433;48.034;-1.764;2022-09-09T09:06:21;20.80;83.20
35305;DHT22;26433;48.034;-1.764;2022-09-09T09:11:26;20.70;83.00
35305;DHT22;26433;48.034;-1.764;2022-09-09T09:16:34;20.70;83.10
35305;DHT22;26433;48.034;-1.764;2022-09-09T09:21:44;20.80;82.90
35305;DHT22;26433;48.034;-1.764;2022-09-09T09:26:53;20.80;82.50
35305;DHT22;26433;48.034;-1.764;2022-09-09T09:31:59;21.00;82.10
35305;DHT22;26433;48.034;-1.764;2022-09-09T09:37:22;21.20;81.70
35305;DHT22;26433;48.034;-1.764;2022-09-09T09:42:27;21.30;80.50
35305;DHT22;26433;48.034;-1.764;2022-09-09T09:47:31;21.20;80.90
35305;DHT22;26433;48.034;-1.764;2022-09-09T09:52:37;21.40;80.40
35305;DHT22;26433;48.034;-1.764;2022-09-09T09:57:45;21.60;79.70
35305;DHT22;26433;48.034;-1.764;2022-09-09T10:02:50;21.70;78.80
35305;DHT22;26433;48.034;-1.764;2022-09-09T10:08:11;21.80;78.60
35305;DHT22;26433;48.034;-1.764;2022-09-09T10:13:19;21.90;78.60
35305;DHT22;26433;48.034;-1.764;2022-09-09T10:18:41;22.10;77.70
35305;DHT22;26433;48.034;-1.764;2022-09-09T10:24:00;22.60;76.60
35305;DHT22;26433;48.034;-1.764;2022-09-09T10:29:22;22.60;75.80
35305;DHT22;26433;48.034;-1.764;2022-09-09T10:34:44;22.40;76.50
35305;DHT22;26433;48.034;-1.764;2022-09-09T10:39:54;22.30;76.70
35305;DHT22;26433;48.034;-1.764;2022-09-09T10:45:16;22.30;76.90
35305;DHT22;26433;48.034;-1.764;2022-09-09T10:50:40;22.10;76.90
35305;DHT22;26433;48.034;-1.764;2022-09-09T10:56:10;22.20;76.50
35305;DHT22;26433;48.034;-1.764;2022-09-09T11:01:20;22.70;76.00
35305;DHT22;26433;48.034;-1.764;2022-09-09T11:06:30;23.40;73.60
35305;DHT22;26433;48.034;-1.764;2022-09-09T11:11:44;24.10;71.70
35305;DHT22;26433;48.034;-1.764;2022-09-09T11:16:51;24.70;69.90
35305;DHT22;26433;48.034;-1.764;2022-09-09T11:21:55;24.90;69.10
35305;DHT22;26433;48.034;-1.764;2022-09-09T11:27:06;24.90;68.90
35305;DHT22;26433;48.034;-1.764;2022-09-09T11:32:31;25.00;68.90
35305;DHT22;26433;48.034;-1.764;2022-09-09T11:37:53;25.00;68.00
35305;DHT22;26433;48.034;-1.764;2022-09-09T11:43:09;24.60;68.90
35305;DHT22;26433;48.034;-1.764;2022-09-09T11:48:25;24.10;69.90
35305;DHT22;26433;48.034;-1.764;2022-09-09T11:53:29;23.60;71.20
35305;DHT22;26433;48.034;-1.764;2022-09-09T11:58:38;23.40;72.40
35305;DHT22;26433;48.034;-1.764;2022-09-09T12:03:45;22.80;73.30
35305;DHT22;26433;48.034;-1.764;2022-09-09T12:08:53;22.20;75.20
35305;DHT22;26433;48.034;-1.764;2022-09-09T12:14:00;21.80;77.00
35305;DHT22;26433;48.034;-1.764;2022-09-09T12:19:07;22.20;77.30
35305;DHT22;26433;48.034;-1.764;2022-09-09T12:24:22;22.80;75.30
35305;DHT22;26433;48.034;-1.764;2022-09-09T12:29:36;23.10;74.20
35305;DHT22;26433;48.034;-1.764;2022-09-09T12:34:41;23.20;74.50
35305;DHT22;26433;48.034;-1.764;2022-09-09T12:39:49;23.30;74.40
35305;DHT22;26433;48.034;-1.764;2022-09-09T12:44:58;23.60;74.30
35305;DHT22;26433;48.034;-1.764;2022-09-09T12:50:02;24.10;73.20
35305;DHT22;26433;48.034;-1.764;2022-09-09T12:55:06;24.60;71.30
35305;DHT22;26433;48.034;-1.764;2022-09-09T13:00:16;24.90;70.20
35305;DHT22;26433;48.034;-1.764;2022-09-09T13:05:23;25.00;69.90
35305;DHT22;26433;48.034;-1.764;2022-09-09T13:10:29;25.00;69.30
35305;DHT22;26433;48.034;-1.764;2022-09-09T13:15:51;24.70;69.40
35305;DHT22;26433;48.034;-1.764;2022-09-09T13:20:56;24.70;70.00
35305;DHT22;26433;48.034;-1.764;2022-09-09T13:26:02;24.90;68.90
35305;DHT22;26433;48.034;-1.764;2022-09-09T13:31:21;25.00;67.60
35305;DHT22;26433;48.034;-1.764;2022-09-09T13:36:30;24.60;68.30
35305;DHT22;26433;48.034;-1.764;2022-09-09T13:41:35;24.40;68.90
35305;DHT22;26433;48.034;-1.764;2022-09-09T13:46:42;24.10;69.20
35305;DHT22;26433;48.034;-1.764;2022-09-09T13:51:47;23.70;69.90
35305;DHT22;26433;48.034;-1.764;2022-09-09T13:56:52;23.10;70.20
35305;DHT22;26433;48.034;-1.764;2022-09-09T14:01:58;23.30;70.40
35305;DHT22;26433;48.034;-1.764;2022-09-09T14:07:04;23.30;70.40
35305;DHT22;26433;48.034;-1.764;2022-09-09T14:12:09;23.40;70.00
35305;DHT22;26433;48.034;-1.764;2022-09-09T14:17:15;23.10;70.50
35305;DHT22;26433;48.034;-1.764;2022-09-09T14:22:20;22.90;71.20
35305;DHT22;26433;48.034;-1.764;2022-09-09T14:27:24;22.60;71.70
35305;DHT22;26433;48.034;-1.764;2022-09-09T14:32:30;22.30;72.50
35305;DHT22;26433;48.034;-1.764;2022-09-09T14:37:35;21.90;73.80
35305;DHT22;26433;48.034;-1.764;2022-09-09T14:42:45;21.50;75.10
35305;DHT22;26433;48.034;-1.764;2022-09-09T14:47:51;21.20;75.90
35305;DHT22;26433;48.034;-1.764;2022-09-09T14:52:58;20.90;76.60
35305;DHT22;26433;48.034;-1.764;2022-09-09T14:58:04;20.80;76.60
35305;DHT22;26433;48.034;-1.764;2022-09-09T15:03:11;20.80;76.40
35305;DHT22;26433;48.034;-1.764;2022-09-09T15:08:17;20.80;76.10
35305;DHT22;26433;48.034;-1.764;2022-09-09T15:13:23;20.80;76.00
35305;DHT22;26433;48.034;-1.764;2022-09-09T15:18:29;20.90;75.70
35305;DHT22;26433;48.034;-1.764;2022-09-09T15:23:33;21.00;75.20
35305;DHT22;26433;48.034;-1.764;2022-09-09T15:28:37;21.20;74.80
35305;DHT22;26433;48.034;-1.764;2022-09-09T15:33:47;21.40;74.50
35305;DHT22;26433;48.034;-1.764;2022-09-09T15:38:51;21.60;73.90
35305;DHT22;26433;48.034;-1.764;2022-09-09T15:43:56;21.90;73.20
35305;DHT22;26433;48.034;-1.764;2022-09-09T15:49:06;22.00;72.80
35305;DHT22;26433;48.034;-1.764;2022-09-09T15:54:12;22.20;72.40
35305;DHT22;26433;48.034;-1.764;2022-09-09T15:59:16;22.30;72.20
35305;DHT22;26433;48.034;-1.764;2022-09-09T16:04:23;22.40;72.40
35305;DHT22;26433;48.034;-1.764;2022-09-09T16:09:28;22.50;72.20
35305;DHT22;26433;48.034;-1.764;2022-09-09T16:14:32;22.50;72.10
35305;DHT22;26433;48.034;-1.764;2022-09-09T16:19:39;22.50;72.10
35305;DHT22;26433;48.034;-1.764;2022-09-09T16:24:42;22.60;71.80
35305;DHT22;26433;48.034;-1.764;2022-09-09T16:29:46;22.50;71.70
35305;DHT22;26433;48.034;-1.764;2022-09-09T16:34:52;22.50;71.60
35305;DHT22;26433;48.034;-1.764;2022-09-09T16:39:56;22.40;71.70
35305;DHT22;26433;48.034;-1.764;2022-09-09T16:45:00;22.30;71.90
35305;DHT22;26433;48.034;-1.764;2022-09-09T16:50:06;22.30;72.00
35305;DHT22;26433;48.034;-1.764;2022-09-09T16:55:10;22.20;71.90
35305;DHT22;26433;48.034;-1.764;2022-09-09T17:00:14;22.20;72.40
35305;DHT22;26433;48.034;-1.764;2022-09-09T17:05:19;22.20;71.90
35305;DHT22;26433;48.034;-1.764;2022-09-09T17:10:23;22.20;71.90
35305;DHT22;26433;48.034;-1.764;2022-09-09T17:15:28;22.20;71.70
35305;DHT22;26433;48.034;-1.764;2022-09-09T17:20:36;22.10;71.60
35305;DHT22;26433;48.034;-1.764;2022-09-09T17:25:56;22.10;71.60
35305;DHT22;26433;48.034;-1.764;2022-09-09T17:31:00;21.90;71.80
35305;DHT22;26433;48.034;-1.764;2022-09-09T17:36:10;21.90;71.90
35305;DHT22;26433;48.034;-1.764;2022-09-09T17:41:16;21.80;71.80
35305;DHT22;26433;48.034;-1.764;2022-09-09T17:46:22;21.60;72.10
35305;DHT22;26433;48.034;-1.764;2022-09-09T17:51:29;21.50;72.40
35305;DHT22;26433;48.034;-1.764;2022-09-09T17:56:33;21.30;72.50
35305;DHT22;26433;48.034;-1.764;2022-09-09T18:01:39;21.20;72.80
35305;DHT22;26433;48.034;-1.764;2022-09-09T18:06:46;21.10;73.10
35305;DHT22;26433;48.034;-1.764;2022-09-09T18:11:52;21.00;73.30
35305;DHT22;26433;48.034;-1.764;2022-09-09T18:16:58;20.90;73.40
35305;DHT22;26433;48.034;-1.764;2022-09-09T18:22:04;20.80;73.60
35305;DHT22;26433;48.034;-1.764;2022-09-09T18:27:08;20.70;73.70
35305;DHT22;26433;48.034;-1.764;2022-09-09T18:32:12;20.70;73.90
35305;DHT22;26433;48.034;-1.764;2022-09-09T18:37:17;20.70;73.90
35305;DHT22;26433;48.034;-1.764;2022-09-09T18:42:21;20.70;73.90
35305;DHT22;26433;48.034;-1.764;2022-09-09T18:47:25;20.60;73.90
35305;DHT22;26433;48.034;-1.764;2022-09-09T18:52:30;20.60;74.00
35305;DHT22;26433;48.034;-1.764;2022-09-09T18:57:34;20.60;74.10
35305;DHT22;26433;48.034;-1.764;2022-09-09T19:02:37;20.50;74.20
35305;DHT22;26433;48.034;-1.764;2022-09-09T19:07:42;20.50;74.40
35305;DHT22;26433;48.034;-1.764;2022-09-09T19:12:46;20.40;74.60
35305;DHT22;26433;48.034;-1.764;2022-09-09T19:17:49;20.50;74.60
35305;DHT22;26433;48.034;-1.764;2022-09-09T19:22:55;20.50;74.70
35305;DHT22;26433;48.034;-1.764;2022-09-09T19:27:58;20.50;74.60
35305;DHT22;26433;48.034;-1.764;2022-09-09T19:33:02;20.50;74.70
35305;DHT22;26433;48.034;-1.764;2022-09-09T19:38:07;20.40;75.10
35305;DHT22;26433;48.034;-1.764;2022-09-09T19:43:11;20.30;75.20
35305;DHT22;26433;48.034;-1.764;2022-09-09T19:48:15;20.30;75.40
35305;DHT22;26433;48.034;-1.764;2022-09-09T19:53:22;20.20;75.60
35305;DHT22;26433;48.034;-1.764;2022-09-09T19:58:26;20.20;75.80
35305;DHT22;26433;48.034;-1.764;2022-09-09T20:03:29;20.20;76.10
35305;DHT22;26433;48.034;-1.764;2022-09-09T20:08:35;20.20;76.10
35305;DHT22;26433;48.034;-1.764;2022-09-09T20:13:39;20.10;76.20
35305;DHT22;26433;48.034;-1.764;2022-09-09T20:18:45;20.10;76.10
35305;DHT22;26433;48.034;-1.764;2022-09-09T20:23:53;20.10;76.30
35305;DHT22;26433;48.034;-1.764;2022-09-09T20:28:57;20.10;76.30
35305;DHT22;26433;48.034;-1.764;2022-09-09T20:34:03;20.00;76.70
35305;DHT22;26433;48.034;-1.764;2022-09-09T20:39:10;20.00;76.90
35305;DHT22;26433;48.034;-1.764;2022-09-09T20:44:17;20.00;77.20
35305;DHT22;26433;48.034;-1.764;2022-09-09T20:49:23;19.90;77.40
35305;DHT22;26433;48.034;-1.764;2022-09-09T20:54:28;19.80;77.50
35305;DHT22;26433;48.034;-1.764;2022-09-09T20:59:32;19.70;77.90
35305;DHT22;26433;48.034;-1.764;2022-09-09T21:04:36;19.70;78.10
35305;DHT22;26433;48.034;-1.764;2022-09-09T21:09:41;19.60;78.10
35305;DHT22;26433;48.034;-1.764;2022-09-09T21:14:45;19.60;78.20
35305;DHT22;26433;48.034;-1.764;2022-09-09T21:19:48;19.50;78.40
35305;DHT22;26433;48.034;-1.764;2022-09-09T21:24:53;19.40;78.60
35305;DHT22;26433;48.034;-1.764;2022-09-09T21:29:57;19.40;78.60
35305;DHT22;26433;48.034;-1.764;2022-09-09T21:35:00;19.40;78.60
35305;DHT22;26433;48.034;-1.764;2022-09-09T21:40:07;19.40;78.60
35305;DHT22;26433;48.034;-1.764;2022-09-09T21:45:11;19.30;78.70
35305;DHT22;26433;48.034;-1.764;2022-09-09T21:50:15;19.20;79.40
35305;DHT22;26433;48.034;-1.764;2022-09-09T21:55:21;19.10;79.00
35305;DHT22;26433;48.034;-1.764;2022-09-09T22:00:25;19.10;79.20
35305;DHT22;26433;48.034;-1.764;2022-09-09T22:05:30;19.00;79.50
35305;DHT22;26433;48.034;-1.764;2022-09-09T22:10:36;19.00;79.60
35305;DHT22;26433;48.034;-1.764;2022-09-09T22:15:40;18.90;79.80
35305;DHT22;26433;48.034;-1.764;2022-09-09T22:20:44;18.80;80.00
35305;DHT22;26433;48.034;-1.764;2022-09-09T22:25:51;18.80;80.20
